sensor_id;sensor_type;location;lat;lon;timestamp;temperature;humidity
55064;DHT22;40963;52.168;21.296;2023-04-16T00:02:20;8.50;99.90
55064;DHT22;40963;52.168;21.296;2023-04-16T00:04:46;8.50;99.90
55064;DHT22;40963;52.168;21.296;2023-04-16T00:07:11;8.60;99.90
55064;DHT22;40963;52.168;21.296;2023-04-16T00:09:37;8.50;99.90
55064;DHT22;40963;52.168;21.296;2023-04-16T00:12:03;8.50;99.90
55064;DHT22;40963;52.168;21.296;2023-04-16T00:14:29;8.50;99.90
55064;DHT22;40963;52.168;21.296;2023-04-16T00:16:54;8.50;99.90
55064;DHT22;40963;52.168;21.296;2023-04-16T00:19:20;8.50;99.90
55064;DHT22;40963;52.168;21.296;2023-04-16T00:21:46;8.50;99.90
55064;DHT22;40963;52.168;21.296;2023-04-16T00:24:12;8.50;99.90
55064;DHT22;40963;52.168;21.296;2023-04-16T00:26:37;8.50;99.90
55064;DHT22;40963;52.168;21.296;2023-04-16T00:29:03;8.50;99.90
55064;DHT22;40963;52.168;21.296;2023-04-16T00:31:30;8.50;99.90
55064;DHT22;40963;52.168;21.296;2023-04-16T00:33:56;8.50;99.90
55064;DHT22;40963;52.168;21.296;2023-04-16T00:36:26;8.50;99.90
55064;DHT22;40963;52.168;21.296;2023-04-16T00:38:52;8.40;99.90
55064;DHT22;40963;52.168;21.296;2023-04-16T00:41:18;8.40;99.90
55064;DHT22;40963;52.168;21.296;2023-04-16T00:43:44;8.40;99.90
55064;DHT22;40963;52.168;21.296;2023-04-16T00:46:11;8.40;99.90
55064;DHT22;40963;52.168;21.296;2023-04-16T00:48:37;8.40;99.90
55064;DHT22;40963;52.168;21.296;2023-04-16T00:51:05;8.40;99.90
55064;DHT22;40963;52.168;21.296;2023-04-16T00:53:31;8.40;99.90
55064;DHT22;40963;52.168;21.296;2023-04-16T00:55:57;8.40;99.90
55064;DHT22;40963;52.168;21.296;2023-04-16T00:58:23;8.30;99.90
55064;DHT22;40963;52.168;21.296;2023-04-16T01:00:49;8.30;99.90
55064;DHT22;40963;52.168;21.296;2023-04-16T01:03:15;8.30;99.90
55064;DHT22;40963;52.168;21.296;2023-04-16T01:05:41;8.30;99.90
55064;DHT22;40963;52.168;21.296;2023-04-16T01:08:17;8.30;99.90
55064;DHT22;40963;52.168;21.296;2023-04-16T01:10:43;8.30;99.90
55064;DHT22;40963;52.168;21.296;2023-04-16T01:13:09;8.30;99.90
55064;DHT22;40963;52.168;21.296;2023-04-16T01:15:35;8.30;99.90
55064;DHT22;40963;52.168;21.296;2023-04-16T01:18:01;8.30;99.90
55064;DHT22;40963;52.168;21.296;2023-04-16T01:20:28;8.30;99.90
55064;DHT22;40963;52.168;21.296;2023-04-16T01:22:54;8.30;99.90
55064;DHT22;40963;52.168;21.296;2023-04-16T01:25:20;8.30;99.90
55064;DHT22;40963;52.168;21.296;2023-04-16T01:27:48;8.30;99.90
55064;DHT22;40963;52.168;21.296;2023-04-16T01:30:14;8.20;99.90
55064;DHT22;40963;52.168;21.296;2023-04-16T01:32:39;8.20;99.90
55064;DHT22;40963;52.168;21.296;2023-04-16T01:35:05;8.20;99.90
55064;DHT22;40963;52.168;21.296;2023-04-16T01:37:31;8.20;99.90
55064;DHT22;40963;52.168;21.296;2023-04-16T01:39:57;8.20;99.90
55064;DHT22;40963;52.168;21.296;2023-04-16T01:42:22;8.20;99.90
55064;DHT22;40963;52.168;21.296;2023-04-16T01:44:48;8.20;99.90
55064;DHT22;40963;52.168;21.296;2023-04-16T01:47:13;8.20;99.90
55064;DHT22;40963;52.168;21.296;2023-04-16T01:49:39;8.20;99.90
55064;DHT22;40963;52.168;21.296;2023-04-16T01:52:05;8.20;99.90
55064;DHT22;40963;52.168;21.296;2023-04-16T01:54:33;8.20;99.90
55064;DHT22;40963;52.168;21.296;2023-04-16T01:56:58;8.10;99.90
55064;DHT22;40963;52.168;21.296;2023-04-16T01:59:24;8.20;99.90
55064;DHT22;40963;52.168;21.296;2023-04-16T02:01:49;8.10;99.90
55064;DHT22;40963;52.168;21.296;2023-04-16T02:04:15;8.20;99.90
55064;DHT22;40963;52.168;21.296;2023-04-16T02:06:41;8.10;99.90
55064;DHT22;40963;52.168;21.296;2023-04-16T02:09:07;8.20;99.90
55064;DHT22;40963;52.168;21.296;2023-04-16T02:11:32;8.20;99.90
55064;DHT22;40963;52.168;21.296;2023-04-16T02:13:58;8.20;99.90
55064;DHT22;40963;52.168;21.296;2023-04-16T02:16:24;8.20;99.90
55064;DHT22;40963;52.168;21.296;2023-04-16T02:18:50;8.20;99.90
55064;DHT22;40963;52.168;21.296;2023-04-16T02:21:16;8.20;99.90
55064;DHT22;40963;52.168;21.296;2023-04-16T02:23:41;8.20;99.90
55064;DHT22;40963;52.168;21.296;2023-04-16T02:26:10;8.20;99.90
55064;DHT22;40963;52.168;21.296;2023-04-16T02:28:37;8.10;99.90
55064;DHT22;40963;52.168;21.296;2023-04-16T02:31:03;8.20;99.90
55064;DHT22;40963;52.168;21.296;2023-04-16T02:33:29;8.10;99.90
55064;DHT22;40963;52.168;21.296;2023-04-16T02:35:56;8.20;99.90
55064;DHT22;40963;52.168;21.296;2023-04-16T02:38:22;8.10;99.90
55064;DHT22;40963;52.168;21.296;2023-04-16T02:40:47;8.20;99.90
55064;DHT22;40963;52.168;21.296;2023-04-16T02:43:13;8.20;99.90
55064;DHT22;40963;52.168;21.296;2023-04-16T02:45:38;8.20;99.90
55064;DHT22;40963;52.168;21.296;2023-04-16T02:48:04;8.20;99.90
55064;DHT22;40963;52.168;21.296;2023-04-16T02:50:31;8.20;99.90
55064;DHT22;40963;52.168;21.296;2023-04-16T02:52:57;8.20;99.90
55064;DHT22;40963;52.168;21.296;2023-04-16T02:55:22;8.20;99.90
55064;DHT22;40963;52.168;21.296;2023-04-16T02:57:48;8.20;99.90
55064;DHT22;40963;52.168;21.296;2023-04-16T03:00:14;8.20;99.90
55064;DHT22;40963;52.168;21.296;2023-04-16T03:02:39;8.20;99.90
55064;DHT22;40963;52.168;21.296;2023-04-16T03:05:06;8.20;99.90
55064;DHT22;40963;52.168;21.296;2023-04-16T03:07:32;8.20;99.90
55064;DHT22;40963;52.168;21.296;2023-04-16T03:09:58;8.20;99.90
55064;DHT22;40963;52.168;21.296;2023-04-16T03:12:23;8.20;99.90
55064;DHT22;40963;52.168;21.296;2023-04-16T03:14:50;8.20;99.90
55064;DHT22;40963;52.168;21.296;2023-04-16T03:17:16;8.20;99.90
55064;DHT22;40963;52.168;21.296;2023-04-16T03:19:42;8.20;99.90
55064;DHT22;40963;52.168;21.296;2023-04-16T03:22:08;8.20;99.90
55064;DHT22;40963;52.168;21.296;2023-04-16T03:24:33;8.20;99.90
55064;DHT22;40963;52.168;21.296;2023-04-16T03:26:59;8.10;99.90
55064;DHT22;40963;52.168;21.296;2023-04-16T03:29:26;8.10;99.90
55064;DHT22;40963;52.168;21.296;2023-04-16T03:31:52;8.10;99.90
55064;DHT22;40963;52.168;21.296;2023-04-16T03:34:18;8.10;99.90
55064;DHT22;40963;52.168;21.296;2023-04-16T03:36:43;8.10;99.90
55064;DHT22;40963;52.168;21.296;2023-04-16T03:39:09;8.10;99.90
55064;DHT22;40963;52.168;21.296;2023-04-16T03:41:35;8.10;99.90
55064;DHT22;40963;52.168;21.296;2023-04-16T03:44:00;8.10;99.90
55064;DHT22;40963;52.168;21.296;2023-04-16T03:46:26;8.10;99.90
55064;DHT22;40963;52.168;21.296;2023-04-16T03:48:51;8.10;99.90
55064;DHT22;40963;52.168;21.296;2023-04-16T03:51:17;8.20;99.90
55064;DHT22;40963;52.168;21.296;2023-04-16T03:53:42;8.20;99.90
55064;DHT22;40963;52.168;21.296;2023-04-16T03:56:08;8.20;99.90
55064;DHT22;40963;52.168;21.296;2023-04-16T03:58:34;8.20;99.90
55064;DHT22;40963;52.168;21.296;2023-04-16T04:00:59;8.10;99.90
55064;DHT22;40963;52.168;21.296;2023-04-16T04:03:25;8.20;99.90
55064;DHT22;40963;52.168;21.296;2023-04-16T04:05:51;8.20;99.90
55064;DHT22;40963;52.168;21.296;2023-04-16T04:08:16;8.10;99.90
55064;DHT22;40963;52.168;21.296;2023-04-16T04:10:42;8.10;99.90
55064;DHT22;40963;52.168;21.296;2023-04-16T04:13:08;8.20;99.90
55064;DHT22;40963;52.168;21.296;2023-04-16T04:15:34;8.20;99.90
55064;DHT22;40963;52.168;21.296;2023-04-16T04:17:59;8.10;99.90
55064;DHT22;40963;52.168;21.296;2023-04-16T04:20:25;8.20;99.90
55064;DHT22;40963;52.168;21.296;2023-04-16T04:22:51;8.20;99.90
55064;DHT22;40963;52.168;21.296;2023-04-16T04:25:16;8.20;99.90
55064;DHT22;40963;52.168;21.296;2023-04-16T04:27:42;8.20;99.90
55064;DHT22;40963;52.168;21.296;2023-04-16T04:30:08;8.20;99.90
55064;DHT22;40963;52.168;21.296;2023-04-16T04:32:34;8.30;99.90
55064;DHT22;40963;52.168;21.296;2023-04-16T04:35:01;8.30;99.90
55064;DHT22;40963;52.168;21.296;2023-04-16T04:37:27;8.30;99.90
55064;DHT22;40963;52.168;21.296;2023-04-16T04:39:52;8.30;99.90
55064;DHT22;40963;52.168;21.296;2023-04-16T04:42:18;8.30;99.90
55064;DHT22;40963;52.168;21.296;2023-04-16T04:44:45;8.40;99.90
55064;DHT22;40963;52.168;21.296;2023-04-16T04:47:11;8.30;99.90
55064;DHT22;40963;52.168;21.296;2023-04-16T04:49:36;8.30;99.90
55064;DHT22;40963;52.168;21.296;2023-04-16T04:52:02;8.30;99.90
55064;DHT22;40963;52.168;21.296;2023-04-16T04:54:29;8.40;99.90
55064;DHT22;40963;52.168;21.296;2023-04-16T04:56:55;8.40;99.90
55064;DHT22;40963;52.168;21.296;2023-04-16T04:59:21;8.40;99.90
55064;DHT22;40963;52.168;21.296;2023-04-16T05:01:47;8.40;99.90
55064;DHT22;40963;52.168;21.296;2023-04-16T05:04:13;8.40;99.90
55064;DHT22;40963;52.168;21.296;2023-04-16T05:06:38;8.50;99.90
55064;DHT22;40963;52.168;21.296;2023-04-16T05:09:04;8.50;99.90
55064;DHT22;40963;52.168;21.296;2023-04-16T05:11:29;8.50;99.90
55064;DHT22;40963;52.168;21.296;2023-04-16T05:13:55;8.50;99.90
55064;DHT22;40963;52.168;21.296;2023-04-16T05:16:21;8.50;99.90
55064;DHT22;40963;52.168;21.296;2023-04-16T05:18:47;8.50;99.90
55064;DHT22;40963;52.168;21.296;2023-04-16T05:21:12;8.50;99.90
55064;DHT22;40963;52.168;21.296;2023-04-16T05:23:38;8.50;99.90
55064;DHT22;40963;52.168;21.296;2023-04-16T05:26:03;8.50;99.90
55064;DHT22;40963;52.168;21.296;2023-04-16T05:28:30;8.60;99.90
55064;DHT22;40963;52.168;21.296;2023-04-16T05:30:55;8.60;99.90
55064;DHT22;40963;52.168;21.296;2023-04-16T05:33:21;8.60;99.90
55064;DHT22;40963;52.168;21.296;2023-04-16T05:35:46;8.60;99.90
55064;DHT22;40963;52.168;21.296;2023-04-16T05:38:12;8.60;99.90
55064;DHT22;40963;52.168;21.296;2023-04-16T05:40:38;8.70;99.90
55064;DHT22;40963;52.168;21.296;2023-04-16T05:43:03;8.70;99.90
55064;DHT22;40963;52.168;21.296;2023-04-16T05:45:29;8.70;99.90
55064;DHT22;40963;52.168;21.296;2023-04-16T05:47:56;8.70;99.90
55064;DHT22;40963;52.168;21.296;2023-04-16T05:50:22;8.70;99.90
55064;DHT22;40963;52.168;21.296;2023-04-16T05:52:47;8.80;99.90
55064;DHT22;40963;52.168;21.296;2023-04-16T05:55:13;8.80;99.90
55064;DHT22;40963;52.168;21.296;2023-04-16T05:57:38;8.80;99.90
55064;DHT22;40963;52.168;21.296;2023-04-16T06:00:05;8.90;99.90
55064;DHT22;40963;52.168;21.296;2023-04-16T06:02:30;8.90;99.90
55064;DHT22;40963;52.168;21.296;2023-04-16T06:04:56;9.00;99.90
55064;DHT22;40963;52.168;21.296;2023-04-16T06:07:22;9.00;99.90
55064;DHT22;40963;52.168;21.296;2023-04-16T06:09:47;9.00;99.90
55064;DHT22;40963;52.168;21.296;2023-04-16T06:12:13;9.10;99.90
55064;DHT22;40963;52.168;21.296;2023-04-16T06:14:38;9.10;99.90
55064;DHT22;40963;52.168;21.296;2023-04-16T06:17:04;9.10;99.90
55064;DHT22;40963;52.168;21.296;2023-04-16T06:19:30;9.20;99.90
55064;DHT22;40963;52.168;21.296;2023-04-16T06:21:56;9.20;99.90
55064;DHT22;40963;52.168;21.296;2023-04-16T06:24:21;9.30;99.90
55064;DHT22;40963;52.168;21.296;2023-04-16T06:26:47;9.30;99.90
55064;DHT22;40963;52.168;21.296;2023-04-16T06:29:12;9.40;99.90
55064;DHT22;40963;52.168;21.296;2023-04-16T06:31:38;9.40;99.90
55064;DHT22;40963;52.168;21.296;2023-04-16T06:34:04;9.40;99.90
55064;DHT22;40963;52.168;21.296;2023-04-16T06:36:29;9.50;99.90
55064;DHT22;40963;52.168;21.296;2023-04-16T06:38:55;9.50;99.90
55064;DHT22;40963;52.168;21.296;2023-04-16T06:41:21;9.50;99.90
55064;DHT22;40963;52.168;21.296;2023-04-16T06:43:47;9.60;99.90
55064;DHT22;40963;52.168;21.296;2023-04-16T06:46:13;9.60;99.90
55064;DHT22;40963;52.168;21.296;2023-04-16T06:48:39;9.60;99.90
55064;DHT22;40963;52.168;21.296;2023-04-16T06:51:05;9.70;99.90
55064;DHT22;40963;52.168;21.296;2023-04-16T06:53:31;9.70;99.90
55064;DHT22;40963;52.168;21.296;2023-04-16T06:55:57;9.70;99.90
55064;DHT22;40963;52.168;21.296;2023-04-16T06:58:22;9.70;99.90
55064;DHT22;40963;52.168;21.296;2023-04-16T07:00:48;9.70;99.90
55064;DHT22;40963;52.168;21.296;2023-04-16T07:03:14;9.80;99.90
55064;DHT22;40963;52.168;21.296;2023-04-16T07:05:39;9.80;99.90
55064;DHT22;40963;52.168;21.296;2023-04-16T07:08:05;9.90;99.90
55064;DHT22;40963;52.168;21.296;2023-04-16T07:10:30;9.90;99.90
55064;DHT22;40963;52.168;21.296;2023-04-16T07:12:56;10.00;99.90
55064;DHT22;40963;52.168;21.296;2023-04-16T07:15:22;10.00;99.90
55064;DHT22;40963;52.168;21.296;2023-04-16T07:17:47;10.00;99.90
55064;DHT22;40963;52.168;21.296;2023-04-16T07:20:13;10.10;99.90
55064;DHT22;40963;52.168;21.296;2023-04-16T07:22:39;10.10;99.90
55064;DHT22;40963;52.168;21.296;2023-04-16T07:25:04;10.20;99.90
55064;DHT22;40963;52.168;21.296;2023-04-16T07:27:30;10.20;99.90
55064;DHT22;40963;52.168;21.296;2023-04-16T07:29:56;10.30;99.90
55064;DHT22;40963;52.168;21.296;2023-04-16T07:32:22;10.30;99.90
55064;DHT22;40963;52.168;21.296;2023-04-16T07:34:48;10.40;99.90
55064;DHT22;40963;52.168;21.296;2023-04-16T07:37:13;10.40;99.90
55064;DHT22;40963;52.168;21.296;2023-04-16T07:39:39;10.50;99.90
55064;DHT22;40963;52.168;21.296;2023-04-16T07:42:05;10.50;99.90
55064;DHT22;40963;52.168;21.296;2023-04-16T07:44:31;10.60;99.90
55064;DHT22;40963;52.168;21.296;2023-04-16T07:46:56;10.60;99.90
55064;DHT22;40963;52.168;21.296;2023-04-16T07:49:22;10.60;99.90
55064;DHT22;40963;52.168;21.296;2023-04-16T07:51:48;10.60;99.90
55064;DHT22;40963;52.168;21.296;2023-04-16T07:54:13;10.60;99.90
55064;DHT22;40963;52.168;21.296;2023-04-16T07:56:39;10.70;99.90
55064;DHT22;40963;52.168;21.296;2023-04-16T07:59:05;10.70;99.90
55064;DHT22;40963;52.168;21.296;2023-04-16T08:01:30;10.70;99.90
55064;DHT22;40963;52.168;21.296;2023-04-16T08:03:56;10.70;99.90
55064;DHT22;40963;52.168;21.296;2023-04-16T08:06:23;10.70;99.90
55064;DHT22;40963;52.168;21.296;2023-04-16T08:08:49;10.70;99.90
55064;DHT22;40963;52.168;21.296;2023-04-16T08:11:15;10.70;99.90
55064;DHT22;40963;52.168;21.296;2023-04-16T08:13:40;10.70;99.90
55064;DHT22;40963;52.168;21.296;2023-04-16T08:16:06;10.70;99.90
55064;DHT22;40963;52.168;21.296;2023-04-16T08:18:31;10.70;99.90
55064;DHT22;40963;52.168;21.296;2023-04-16T08:20:57;10.70;99.90
55064;DHT22;40963;52.168;21.296;2023-04-16T08:23:23;10.70;99.90
55064;DHT22;40963;52.168;21.296;2023-04-16T08:25:48;10.80;99.90
55064;DHT22;40963;52.168;21.296;2023-04-16T08:28:14;10.80;99.90
55064;DHT22;40963;52.168;21.296;2023-04-16T08:30:40;10.80;99.90
55064;DHT22;40963;52.168;21.296;2023-04-16T08:33:05;10.80;99.90
55064;DHT22;40963;52.168;21.296;2023-04-16T08:35:31;10.90;99.90
55064;DHT22;40963;52.168;21.296;2023-04-16T08:37:57;10.90;99.90
55064;DHT22;40963;52.168;21.296;2023-04-16T08:40:25;11.00;99.90
55064;DHT22;40963;52.168;21.296;2023-04-16T08:42:54;11.00;99.90
55064;DHT22;40963;52.168;21.296;2023-04-16T08:45:20;11.00;99.90
55064;DHT22;40963;52.168;21.296;2023-04-16T08:47:50;11.00;99.90
55064;DHT22;40963;52.168;21.296;2023-04-16T08:50:24;11.10;99.90
55064;DHT22;40963;52.168;21.296;2023-04-16T08:52:52;11.20;99.90
55064;DHT22;40963;52.168;21.296;2023-04-16T08:55:22;11.20;99.90
55064;DHT22;40963;52.168;21.296;2023-04-16T08:57:53;11.20;99.90
55064;DHT22;40963;52.168;21.296;2023-04-16T09:00:19;11.30;99.90
55064;DHT22;40963;52.168;21.296;2023-04-16T09:02:45;11.30;99.90
55064;DHT22;40963;52.168;21.296;2023-04-16T09:05:14;11.30;99.90
55064;DHT22;40963;52.168;21.296;2023-04-16T09:07:51;11.30;99.90
55064;DHT22;40963;52.168;21.296;2023-04-16T09:10:18;11.40;99.90
55064;DHT22;40963;52.168;21.296;2023-04-16T09:12:44;11.40;99.90
55064;DHT22;40963;52.168;21.296;2023-04-16T09:15:11;11.50;99.90
55064;DHT22;40963;52.168;21.296;2023-04-16T09:17:37;11.60;99.90
55064;DHT22;40963;52.168;21.296;2023-04-16T09:20:04;11.70;99.90
55064;DHT22;40963;52.168;21.296;2023-04-16T09:22:36;11.70;99.90
55064;DHT22;40963;52.168;21.296;2023-04-16T09:25:02;11.80;99.90
55064;DHT22;40963;52.168;21.296;2023-04-16T09:27:29;11.90;99.90
55064;DHT22;40963;52.168;21.296;2023-04-16T09:29:55;11.90;99.90
55064;DHT22;40963;52.168;21.296;2023-04-16T09:32:25;12.00;99.90
55064;DHT22;40963;52.168;21.296;2023-04-16T09:34:59;12.00;99.90
55064;DHT22;40963;52.168;21.296;2023-04-16T09:37:29;12.10;99.90
55064;DHT22;40963;52.168;21.296;2023-04-16T09:39:57;12.10;99.90
55064;DHT22;40963;52.168;21.296;2023-04-16T09:42:24;12.20;99.90
55064;DHT22;40963;52.168;21.296;2023-04-16T09:44:51;12.20;99.90
55064;DHT22;40963;52.168;21.296;2023-04-16T09:47:17;12.20;99.90
55064;DHT22;40963;52.168;21.296;2023-04-16T09:49:43;12.20;99.90
55064;DHT22;40963;52.168;21.296;2023-04-16T09:52:14;12.20;99.90
55064;DHT22;40963;52.168;21.296;2023-04-16T09:55:00;12.30;99.90
55064;DHT22;40963;52.168;21.296;2023-04-16T09:57:26;12.30;99.90
55064;DHT22;40963;52.168;21.296;2023-04-16T10:00:01;12.40;99.90
55064;DHT22;40963;52.168;21.296;2023-04-16T10:02:28;12.40;99.90
55064;DHT22;40963;52.168;21.296;2023-04-16T10:04:54;12.40;99.90
55064;DHT22;40963;52.168;21.296;2023-04-16T10:07:20;12.40;99.90
55064;DHT22;40963;52.168;21.296;2023-04-16T10:09:47;12.40;99.90
55064;DHT22;40963;52.168;21.296;2023-04-16T10:12:13;12.40;99.90
55064;DHT22;40963;52.168;21.296;2023-04-16T10:14:40;12.40;99.90
55064;DHT22;40963;52.168;21.296;2023-04-16T10:17:06;12.40;99.90
55064;DHT22;40963;52.168;21.296;2023-04-16T10:19:33;12.40;99.90
55064;DHT22;40963;52.168;21.296;2023-04-16T10:22:00;12.40;99.90
55064;DHT22;40963;52.168;21.296;2023-04-16T10:24:26;12.60;99.90
55064;DHT22;40963;52.168;21.296;2023-04-16T10:26:52;12.60;99.90
55064;DHT22;40963;52.168;21.296;2023-04-16T10:29:20;12.70;99.90
55064;DHT22;40963;52.168;21.296;2023-04-16T10:31:46;12.70;99.90
55064;DHT22;40963;52.168;21.296;2023-04-16T10:34:13;12.70;99.90
55064;DHT22;40963;52.168;21.296;2023-04-16T10:36:39;12.60;99.90
55064;DHT22;40963;52.168;21.296;2023-04-16T10:39:10;12.60;99.90
55064;DHT22;40963;52.168;21.296;2023-04-16T10:41:37;12.60;99.90
55064;DHT22;40963;52.168;21.296;2023-04-16T10:44:07;12.70;99.90
55064;DHT22;40963;52.168;21.296;2023-04-16T10:46:38;12.70;99.90
55064;DHT22;40963;52.168;21.296;2023-04-16T10:49:23;12.80;99.90
55064;DHT22;40963;52.168;21.296;2023-04-16T10:51:57;12.90;99.90
55064;DHT22;40963;52.168;21.296;2023-04-16T10:54:24;13.00;99.90
55064;DHT22;40963;52.168;21.296;2023-04-16T10:56:54;13.10;99.90
55064;DHT22;40963;52.168;21.296;2023-04-16T10:59:21;13.20;99.80
55064;DHT22;40963;52.168;21.296;2023-04-16T11:01:50;13.30;99.00
55064;DHT22;40963;52.168;21.296;2023-04-16T11:09:56;13.60;95.90
55064;DHT22;40963;52.168;21.296;2023-04-16T11:15:15;13.70;95.30
55064;DHT22;40963;52.168;21.296;2023-04-16T11:17:44;13.70;94.30
55064;DHT22;40963;52.168;21.296;2023-04-16T11:20:15;13.70;93.50
55064;DHT22;40963;52.168;21.296;2023-04-16T11:22:41;13.70;93.60
55064;DHT22;40963;52.168;21.296;2023-04-16T11:25:07;13.80;92.90
55064;DHT22;40963;52.168;21.296;2023-04-16T11:27:33;13.70;92.00
55064;DHT22;40963;52.168;21.296;2023-04-16T11:30:04;13.60;91.50
55064;DHT22;40963;52.168;21.296;2023-04-16T11:32:31;13.50;91.60
55064;DHT22;40963;52.168;21.296;2023-04-16T11:34:58;13.40;91.80
55064;DHT22;40963;52.168;21.296;2023-04-16T11:37:36;13.40;92.00
55064;DHT22;40963;52.168;21.296;2023-04-16T11:40:03;13.40;92.20
55064;DHT22;40963;52.168;21.296;2023-04-16T11:42:32;13.40;92.40
55064;DHT22;40963;52.168;21.296;2023-04-16T11:44:58;13.40;92.80
55064;DHT22;40963;52.168;21.296;2023-04-16T11:47:27;13.50;92.90
55064;DHT22;40963;52.168;21.296;2023-04-16T11:49:53;13.60;93.50
55064;DHT22;40963;52.168;21.296;2023-04-16T11:52:30;13.80;93.10
55064;DHT22;40963;52.168;21.296;2023-04-16T11:54:57;14.00;91.70
55064;DHT22;40963;52.168;21.296;2023-04-16T11:57:27;14.20;90.40
55064;DHT22;40963;52.168;21.296;2023-04-16T11:59:54;14.20;88.20
55064;DHT22;40963;52.168;21.296;2023-04-16T12:02:40;14.40;87.50
55064;DHT22;40963;52.168;21.296;2023-04-16T12:05:25;14.40;84.80
55064;DHT22;40963;52.168;21.296;2023-04-16T12:07:52;14.40;83.60
55064;DHT22;40963;52.168;21.296;2023-04-16T12:10:17;14.40;82.90
55064;DHT22;40963;52.168;21.296;2023-04-16T12:12:43;14.40;82.80
55064;DHT22;40963;52.168;21.296;2023-04-16T12:15:09;14.30;82.40
55064;DHT22;40963;52.168;21.296;2023-04-16T12:17:35;14.20;83.30
55064;DHT22;40963;52.168;21.296;2023-04-16T12:20:03;14.10;83.90
55064;DHT22;40963;52.168;21.296;2023-04-16T12:22:34;14.10;84.50
55064;DHT22;40963;52.168;21.296;2023-04-16T12:27:50;14.30;84.70
55064;DHT22;40963;52.168;21.296;2023-04-16T12:30:21;14.30;83.40
55064;DHT22;40963;52.168;21.296;2023-04-16T12:32:52;14.40;83.70
55064;DHT22;40963;52.168;21.296;2023-04-16T12:35:31;14.40;84.10
55064;DHT22;40963;52.168;21.296;2023-04-16T12:37:58;14.50;83.70
55064;DHT22;40963;52.168;21.296;2023-04-16T12:40:24;14.40;82.50
55064;DHT22;40963;52.168;21.296;2023-04-16T12:42:49;14.30;82.10
55064;DHT22;40963;52.168;21.296;2023-04-16T12:45:15;14.40;83.80
55064;DHT22;40963;52.168;21.296;2023-04-16T12:47:41;14.60;84.50
55064;DHT22;40963;52.168;21.296;2023-04-16T12:50:07;14.70;82.90
55064;DHT22;40963;52.168;21.296;2023-04-16T12:52:33;14.70;82.10
55064;DHT22;40963;52.168;21.296;2023-04-16T12:55:01;14.80;81.80
55064;DHT22;40963;52.168;21.296;2023-04-16T12:57:26;14.90;81.10
55064;DHT22;40963;52.168;21.296;2023-04-16T12:59:56;14.90;80.00
55064;DHT22;40963;52.168;21.296;2023-04-16T13:02:23;14.90;78.80
55064;DHT22;40963;52.168;21.296;2023-04-16T13:04:49;14.80;78.70
55064;DHT22;40963;52.168;21.296;2023-04-16T13:07:15;14.80;79.90
55064;DHT22;40963;52.168;21.296;2023-04-16T13:09:41;14.90;79.90
55064;DHT22;40963;52.168;21.296;2023-04-16T13:12:07;14.80;78.30
55064;DHT22;40963;52.168;21.296;2023-04-16T13:14:33;14.70;78.50
55064;DHT22;40963;52.168;21.296;2023-04-16T13:16:58;14.60;78.90
55064;DHT22;40963;52.168;21.296;2023-04-16T13:19:24;14.60;79.30
55064;DHT22;40963;52.168;21.296;2023-04-16T13:21:50;14.60;79.70
55064;DHT22;40963;52.168;21.296;2023-04-16T13:24:16;14.60;79.30
55064;DHT22;40963;52.168;21.296;2023-04-16T13:26:41;14.60;78.90
55064;DHT22;40963;52.168;21.296;2023-04-16T13:29:08;14.60;78.80
55064;DHT22;40963;52.168;21.296;2023-04-16T13:31:33;14.60;79.20
55064;DHT22;40963;52.168;21.296;2023-04-16T13:33:59;14.70;79.00
55064;DHT22;40963;52.168;21.296;2023-04-16T13:36:25;14.60;78.40
55064;DHT22;40963;52.168;21.296;2023-04-16T13:38:51;14.70;78.50
55064;DHT22;40963;52.168;21.296;2023-04-16T13:41:17;14.70;78.00
55064;DHT22;40963;52.168;21.296;2023-04-16T13:43:42;14.70;78.00
55064;DHT22;40963;52.168;21.296;2023-04-16T13:46:08;14.70;77.70
55064;DHT22;40963;52.168;21.296;2023-04-16T13:48:34;14.70;77.00
55064;DHT22;40963;52.168;21.296;2023-04-16T13:50:59;14.70;76.70
55064;DHT22;40963;52.168;21.296;2023-04-16T13:53:25;14.70;77.00
55064;DHT22;40963;52.168;21.296;2023-04-16T13:55:51;14.70;76.80
55064;DHT22;40963;52.168;21.296;2023-04-16T13:58:16;14.80;76.80
55064;DHT22;40963;52.168;21.296;2023-04-16T14:00:42;14.80;76.50
55064;DHT22;40963;52.168;21.296;2023-04-16T14:03:08;14.90;76.30
55064;DHT22;40963;52.168;21.296;2023-04-16T14:05:33;15.10;76.20
55064;DHT22;40963;52.168;21.296;2023-04-16T14:07:59;15.20;76.90
55064;DHT22;40963;52.168;21.296;2023-04-16T14:10:25;15.40;77.20
55064;DHT22;40963;52.168;21.296;2023-04-16T14:12:50;15.60;75.90
55064;DHT22;40963;52.168;21.296;2023-04-16T14:15:16;15.70;74.60
55064;DHT22;40963;52.168;21.296;2023-04-16T14:17:43;15.80;74.40
55064;DHT22;40963;52.168;21.296;2023-04-16T14:20:10;15.90;73.70
55064;DHT22;40963;52.168;21.296;2023-04-16T14:22:36;15.90;72.40
55064;DHT22;40963;52.168;21.296;2023-04-16T14:25:02;15.80;71.80
55064;DHT22;40963;52.168;21.296;2023-04-16T14:27:29;15.80;71.90
55064;DHT22;40963;52.168;21.296;2023-04-16T14:29:54;15.60;72.20
55064;DHT22;40963;52.168;21.296;2023-04-16T14:32:20;15.60;72.80
55064;DHT22;40963;52.168;21.296;2023-04-16T14:34:46;15.50;72.40
55064;DHT22;40963;52.168;21.296;2023-04-16T14:37:11;15.40;72.90
55064;DHT22;40963;52.168;21.296;2023-04-16T14:39:37;15.50;73.40
55064;DHT22;40963;52.168;21.296;2023-04-16T14:42:04;15.50;73.20
55064;DHT22;40963;52.168;21.296;2023-04-16T14:44:31;15.50;73.30
55064;DHT22;40963;52.168;21.296;2023-04-16T14:46:56;15.50;73.30
55064;DHT22;40963;52.168;21.296;2023-04-16T14:49:22;15.50;73.50
55064;DHT22;40963;52.168;21.296;2023-04-16T14:51:47;15.40;72.90
55064;DHT22;40963;52.168;21.296;2023-04-16T14:54:13;15.40;73.20
55064;DHT22;40963;52.168;21.296;2023-04-16T14:56:39;15.30;73.60
55064;DHT22;40963;52.168;21.296;2023-04-16T14:59:05;15.30;74.00
55064;DHT22;40963;52.168;21.296;2023-04-16T15:01:32;15.30;73.70
55064;DHT22;40963;52.168;21.296;2023-04-16T15:03:58;15.30;73.70
55064;DHT22;40963;52.168;21.296;2023-04-16T15:06:24;15.30;73.40
55064;DHT22;40963;52.168;21.296;2023-04-16T15:08:51;15.30;73.40
55064;DHT22;40963;52.168;21.296;2023-04-16T15:11:16;15.30;73.50
55064;DHT22;40963;52.168;21.296;2023-04-16T15:13:42;15.30;73.20
55064;DHT22;40963;52.168;21.296;2023-04-16T15:16:07;15.30;73.50
55064;DHT22;40963;52.168;21.296;2023-04-16T15:18:33;15.30;73.40
55064;DHT22;40963;52.168;21.296;2023-04-16T15:20:59;15.30;73.30
55064;DHT22;40963;52.168;21.296;2023-04-16T15:23:25;15.30;73.20
55064;DHT22;40963;52.168;21.296;2023-04-16T15:25:51;15.40;73.30
55064;DHT22;40963;52.168;21.296;2023-04-16T15:28:16;15.50;73.20
55064;DHT22;40963;52.168;21.296;2023-04-16T15:30:42;15.60;72.70